sensor_id;sensor_type;location;lat;lon;timestamp;P1;durP1;ratioP1;P2;durP2;ratioP2
6388;SDS011;3227;42.654;23.360;2024-01-10T00:00:15;7.20;;;3.43;;
6388;SDS011;3227;42.654;23.360;2024-01-10T00:02:42;4.73;;;3.00;;
6388;SDS011;3227;42.654;23.360;2024-01-10T00:05:08;6.73;;;3.27;;
6388;SDS011;3227;42.654;23.360;2024-01-10T00:07:35;4.73;;;3.20;;
6388;SDS011;3227;42.654;23.360;2024-01-10T00:10:02;7.27;;;3.43;;
6388;SDS011;3227;42.654;23.360;2024-01-10T00:12:29;7.53;;;3.40;;
6388;SDS011;3227;42.654;23.360;2024-01-10T00:15:01;10.43;;;3.27;;
6388;SDS011;3227;42.654;23.360;2024-01-10T00:17:30;4.83;;;2.97;;
6388;SDS011;3227;42.654;23.360;2024-01-10T00:19:56;6.17;;;3.20;;
6388;SDS011;3227;42.654;23.360;2024-01-10T00:22:23;9.43;;;3.10;;
6388;SDS011;3227;42.654;23.360;2024-01-10T00:24:50;4.47;;;2.87;;
6388;SDS011;3227;42.654;23.360;2024-01-10T00:27:17;5.83;;;3.40;;
6388;SDS011;3227;42.654;23.360;2024-01-10T00:29:43;5.30;;;3.20;;
6388;SDS011;3227;42.654;23.360;2024-01-10T00:32:10;7.30;;;3.27;;
6388;SDS011;3227;42.654;23.360;2024-01-10T00:34:38;5.33;;;3.40;;
6388;SDS011;3227;42.654;23.360;2024-01-10T00:37:05;4.77;;;3.03;;
6388;SDS011;3227;42.654;23.360;2024-01-10T00:39:32;4.57;;;3.00;;
6388;SDS011;3227;42.654;23.360;2024-01-10T00:41:59;6.40;;;3.50;;
6388;SDS011;3227;42.654;23.360;2024-01-10T00:44:25;5.77;;;2.83;;
6388;SDS011;3227;42.654;23.360;2024-01-10T00:46:52;8.47;;;3.60;;
6388;SDS011;3227;42.654;23.360;2024-01-10T00:49:19;6.63;;;3.23;;
6388;SDS011;3227;42.654;23.360;2024-01-10T00:51:47;4.83;;;3.30;;
6388;SDS011;3227;42.654;23.360;2024-01-10T00:54:19;5.93;;;3.20;;
6388;SDS011;3227;42.654;23.360;2024-01-10T00:56:46;7.80;;;3.43;;
6388;SDS011;3227;42.654;23.360;2024-01-10T00:59:12;5.47;;;3.40;;
6388;SDS011;3227;42.654;23.360;2024-01-10T01:01:39;5.47;;;3.10;;
6388;SDS011;3227;42.654;23.360;2024-01-10T01:04:06;5.00;;;3.20;;
6388;SDS011;3227;42.654;23.360;2024-01-10T01:06:33;4.70;;;3.30;;
6388;SDS011;3227;42.654;23.360;2024-01-10T01:09:01;6.13;;;3.37;;
6388;SDS011;3227;42.654;23.360;2024-01-10T01:11:28;5.23;;;3.33;;
6388;SDS011;3227;42.654;23.360;2024-01-10T01:13:54;5.63;;;2.90;;
6388;SDS011;3227;42.654;23.360;2024-01-10T01:16:21;5.50;;;3.13;;
6388;SDS011;3227;42.654;23.360;2024-01-10T01:18:48;3.93;;;2.50;;
6388;SDS011;3227;42.654;23.360;2024-01-10T01:21:15;5.63;;;3.10;;
6388;SDS011;3227;42.654;23.360;2024-01-10T01:23:41;6.83;;;3.47;;
6388;SDS011;3227;42.654;23.360;2024-01-10T01:26:10;7.33;;;3.43;;
6388;SDS011;3227;42.654;23.360;2024-01-10T01:28:38;5.10;;;3.07;;
6388;SDS011;3227;42.654;23.360;2024-01-10T01:31:05;7.13;;;3.47;;
6388;SDS011;3227;42.654;23.360;2024-01-10T01:33:32;5.80;;;3.10;;
6388;SDS011;3227;42.654;23.360;2024-01-10T01:35:59;4.93;;;3.23;;
6388;SDS011;3227;42.654;23.360;2024-01-10T01:38:26;5.87;;;2.90;;
6388;SDS011;3227;42.654;23.360;2024-01-10T01:40:53;4.77;;;2.87;;
6388;SDS011;3227;42.654;23.360;2024-01-10T01:43:22;6.80;;;3.50;;
6388;SDS011;3227;42.654;23.360;2024-01-10T01:45:50;5.60;;;3.37;;
6388;SDS011;3227;42.654;23.360;2024-01-10T01:48:18;8.37;;;3.30;;
6388;SDS011;3227;42.654;23.360;2024-01-10T01:50:46;7.20;;;3.33;;
6388;SDS011;3227;42.654;23.360;2024-01-10T01:53:15;4.70;;;2.83;;
6388;SDS011;3227;42.654;23.360;2024-01-10T01:55:44;5.20;;;3.03;;
6388;SDS011;3227;42.654;23.360;2024-01-10T01:58:12;6.90;;;3.87;;
6388;SDS011;3227;42.654;23.360;2024-01-10T02:00:40;5.60;;;3.00;;
6388;SDS011;3227;42.654;23.360;2024-01-10T02:03:08;5.43;;;3.33;;
6388;SDS011;3227;42.654;23.360;2024-01-10T02:05:36;5.07;;;3.03;;
6388;SDS011;3227;42.654;23.360;2024-01-10T02:08:03;6.37;;;3.57;;
6388;SDS011;3227;42.654;23.360;2024-01-10T02:10:30;6.10;;;3.37;;
6388;SDS011;3227;42.654;23.360;2024-01-10T02:12:57;6.03;;;3.60;;
6388;SDS011;3227;42.654;23.360;2024-01-10T02:15:24;5.23;;;3.03;;
6388;SDS011;3227;42.654;23.360;2024-01-10T02:17:52;9.03;;;3.30;;
6388;SDS011;3227;42.654;23.360;2024-01-10T02:20:19;5.20;;;3.43;;
6388;SDS011;3227;42.654;23.360;2024-01-10T02:22:46;5.50;;;3.20;;
6388;SDS011;3227;42.654;23.360;2024-01-10T02:25:16;5.83;;;3.33;;
6388;SDS011;3227;42.654;23.360;2024-01-10T02:27:43;5.93;;;3.23;;
6388;SDS011;3227;42.654;23.360;2024-01-10T02:30:10;7.93;;;3.27;;
6388;SDS011;3227;42.654;23.360;2024-01-10T02:32:37;5.40;;;3.20;;
6388;SDS011;3227;42.654;23.360;2024-01-10T02:35:04;5.90;;;3.47;;
6388;SDS011;3227;42.654;23.360;2024-01-10T02:37:31;5.90;;;3.50;;
6388;SDS011;3227;42.654;23.360;2024-01-10T02:39:58;5.90;;;3.43;;
6388;SDS011;3227;42.654;23.360;2024-01-10T02:42:27;6.30;;;3.40;;
6388;SDS011;3227;42.654;23.360;2024-01-10T02:44:55;5.27;;;3.50;;
6388;SDS011;3227;42.654;23.360;2024-01-10T02:47:22;5.53;;;3.40;;
6388;SDS011;3227;42.654;23.360;2024-01-10T02:49:48;5.87;;;3.23;;
6388;SDS011;3227;42.654;23.360;2024-01-10T02:52:15;5.63;;;3.33;;
6388;SDS011;3227;42.654;23.360;2024-01-10T02:54:42;5.93;;;3.60;;
6388;SDS011;3227;42.654;23.360;2024-01-10T02:57:08;6.43;;;3.77;;
6388;SDS011;3227;42.654;23.360;2024-01-10T02:59:37;6.83;;;4.03;;
6388;SDS011;3227;42.654;23.360;2024-01-10T03:02:03;5.93;;;3.77;;
6388;SDS011;3227;42.654;23.360;2024-01-10T03:04:30;6.00;;;3.70;;
6388;SDS011;3227;42.654;23.360;2024-01-10T03:06:57;6.27;;;3.67;;
6388;SDS011;3227;42.654;23.360;2024-01-10T03:09:24;6.40;;;3.97;;
6388;SDS011;3227;42.654;23.360;2024-01-10T03:11:50;6.23;;;3.70;;
6388;SDS011;3227;42.654;23.360;2024-01-10T03:14:17;5.60;;;3.63;;
6388;SDS011;3227;42.654;23.360;2024-01-10T03:16:45;7.43;;;4.07;;
6388;SDS011;3227;42.654;23.360;2024-01-10T03:19:12;5.83;;;3.60;;
6388;SDS011;3227;42.654;23.360;2024-01-10T03:21:39;8.40;;;4.70;;
6388;SDS011;3227;42.654;23.360;2024-01-10T03:24:06;6.93;;;4.10;;
6388;SDS011;3227;42.654;23.360;2024-01-10T03:26:33;7.53;;;4.03;;
6388;SDS011;3227;42.654;23.360;2024-01-10T03:29:00;5.87;;;3.43;;
6388;SDS011;3227;42.654;23.360;2024-01-10T03:31:27;9.10;;;4.33;;
6388;SDS011;3227;42.654;23.360;2024-01-10T03:33:56;7.70;;;4.50;;
6388;SDS011;3227;42.654;23.360;2024-01-10T03:36:24;7.90;;;4.13;;
6388;SDS011;3227;42.654;23.360;2024-01-10T03:38:51;5.83;;;3.80;;
6388;SDS011;3227;42.654;23.360;2024-01-10T03:41:19;7.30;;;3.80;;
6388;SDS011;3227;42.654;23.360;2024-01-10T03:43:46;7.33;;;3.87;;
6388;SDS011;3227;42.654;23.360;2024-01-10T03:46:13;6.80;;;3.83;;
6388;SDS011;3227;42.654;23.360;2024-01-10T03:48:40;6.27;;;3.87;;
6388;SDS011;3227;42.654;23.360;2024-01-10T03:51:14;6.13;;;3.40;;
6388;SDS011;3227;42.654;23.360;2024-01-10T03:53:41;5.20;;;3.63;;
6388;SDS011;3227;42.654;23.360;2024-01-10T03:56:08;5.87;;;3.47;;
6388;SDS011;3227;42.654;23.360;2024-01-10T03:58:35;7.40;;;3.83;;
6388;SDS011;3227;42.654;23.360;2024-01-10T04:01:04;9.77;;;3.90;;
6388;SDS011;3227;42.654;23.360;2024-01-10T04:03:31;7.30;;;3.70;;
6388;SDS011;3227;42.654;23.360;2024-01-10T04:05:58;6.10;;;3.27;;
6388;SDS011;3227;42.654;23.360;2024-01-10T04:08:26;5.70;;;3.40;;
6388;SDS011;3227;42.654;23.360;2024-01-10T04:10:53;6.63;;;3.33;;
6388;SDS011;3227;42.654;23.360;2024-01-10T04:13:20;5.90;;;3.40;;
6388;SDS011;3227;42.654;23.360;2024-01-10T04:15:47;7.30;;;3.90;;
6388;SDS011;3227;42.654;23.360;2024-01-10T04:18:14;5.87;;;3.33;;
6388;SDS011;3227;42.654;23.360;2024-01-10T04:20:40;5.83;;;3.47;;
6388;SDS011;3227;42.654;23.360;2024-01-10T04:23:07;6.53;;;3.60;;
6388;SDS011;3227;42.654;23.360;2024-01-10T04:25:36;4.93;;;3.23;;
6388;SDS011;3227;42.654;23.360;2024-01-10T04:28:02;5.67;;;3.43;;
6388;SDS011;3227;42.654;23.360;2024-01-10T04:30:30;5.70;;;3.53;;
6388;SDS011;3227;42.654;23.360;2024-01-10T04:32:56;7.20;;;3.63;;
6388;SDS011;3227;42.654;23.360;2024-01-10T04:35:23;5.53;;;3.20;;
6388;SDS011;3227;42.654;23.360;2024-01-10T04:37:50;5.17;;;3.33;;
6388;SDS011;3227;42.654;23.360;2024-01-10T04:40:16;7.03;;;3.30;;
6388;SDS011;3227;42.654;23.360;2024-01-10T04:42:45;6.93;;;3.70;;
6388;SDS011;3227;42.654;23.360;2024-01-10T04:45:12;5.17;;;2.97;;
6388;SDS011;3227;42.654;23.360;2024-01-10T04:47:38;6.40;;;3.60;;
6388;SDS011;3227;42.654;23.360;2024-01-10T04:50:05;6.20;;;3.53;;
6388;SDS011;3227;42.654;23.360;2024-01-10T04:52:33;6.40;;;3.50;;
6388;SDS011;3227;42.654;23.360;2024-01-10T04:55:00;6.27;;;3.60;;
6388;SDS011;3227;42.654;23.360;2024-01-10T04:57:27;8.07;;;3.53;;
6388;SDS011;3227;42.654;23.360;2024-01-10T04:59:56;5.30;;;3.17;;
6388;SDS011;3227;42.654;23.360;2024-01-10T05:02:23;6.03;;;3.53;;
6388;SDS011;3227;42.654;23.360;2024-01-10T05:04:50;5.30;;;3.13;;
6388;SDS011;3227;42.654;23.360;2024-01-10T05:07:17;7.77;;;3.87;;
6388;SDS011;3227;42.654;23.360;2024-01-10T05:09:44;6.30;;;3.87;;
6388;SDS011;3227;42.654;23.360;2024-01-10T05:12:11;6.20;;;4.03;;
6388;SDS011;3227;42.654;23.360;2024-01-10T05:14:43;6.33;;;3.73;;
6388;SDS011;3227;42.654;23.360;2024-01-10T05:17:11;7.23;;;3.40;;
6388;SDS011;3227;42.654;23.360;2024-01-10T05:19:38;5.87;;;3.70;;
6388;SDS011;3227;42.654;23.360;2024-01-10T05:22:05;6.63;;;3.63;;
6388;SDS011;3227;42.654;23.360;2024-01-10T05:24:32;6.13;;;3.43;;
6388;SDS011;3227;42.654;23.360;2024-01-10T05:27:00;5.83;;;3.60;;
6388;SDS011;3227;42.654;23.360;2024-01-10T05:29:28;6.67;;;4.00;;
6388;SDS011;3227;42.654;23.360;2024-01-10T05:31:54;8.07;;;4.00;;
6388;SDS011;3227;42.654;23.360;2024-01-10T05:34:23;8.23;;;4.43;;
6388;SDS011;3227;42.654;23.360;2024-01-10T05:36:49;8.63;;;4.73;;
6388;SDS011;3227;42.654;23.360;2024-01-10T05:39:16;10.63;;;3.93;;
6388;SDS011;3227;42.654;23.360;2024-01-10T05:41:45;9.60;;;4.13;;
6388;SDS011;3227;42.654;23.360;2024-01-10T05:44:12;10.97;;;4.23;;
6388;SDS011;3227;42.654;23.360;2024-01-10T05:46:40;7.40;;;3.80;;
6388;SDS011;3227;42.654;23.360;2024-01-10T05:49:07;6.93;;;3.67;;
6388;SDS011;3227;42.654;23.360;2024-01-10T05:51:37;6.77;;;4.20;;
6388;SDS011;3227;42.654;23.360;2024-01-10T05:54:04;6.90;;;3.83;;
6388;SDS011;3227;42.654;23.360;2024-01-10T05:56:32;9.00;;;4.10;;
6388;SDS011;3227;42.654;23.360;2024-01-10T05:58:59;9.50;;;4.00;;
6388;SDS011;3227;42.654;23.360;2024-01-10T06:01:26;6.07;;;3.90;;
6388;SDS011;3227;42.654;23.360;2024-01-10T06:03:54;16.03;;;4.03;;
6388;SDS011;3227;42.654;23.360;2024-01-10T06:06:21;7.37;;;3.90;;
6388;SDS011;3227;42.654;23.360;2024-01-10T06:08:49;7.67;;;3.77;;
6388;SDS011;3227;42.654;23.360;2024-01-10T06:11:17;7.67;;;4.20;;
6388;SDS011;3227;42.654;23.360;2024-01-10T06:13:44;7.33;;;4.27;;
6388;SDS011;3227;42.654;23.360;2024-01-10T06:16:11;6.30;;;3.80;;
6388;SDS011;3227;42.654;23.360;2024-01-10T06:18:38;6.93;;;4.07;;
6388;SDS011;3227;42.654;23.360;2024-01-10T06:21:05;8.40;;;4.57;;
6388;SDS011;3227;42.654;23.360;2024-01-10T06:23:32;7.53;;;3.63;;
6388;SDS011;3227;42.654;23.360;2024-01-10T06:26:01;10.20;;;4.60;;
6388;SDS011;3227;42.654;23.360;2024-01-10T06:28:30;7.43;;;3.93;;
6388;SDS011;3227;42.654;23.360;2024-01-10T06:30:56;7.10;;;3.63;;
6388;SDS011;3227;42.654;23.360;2024-01-10T06:33:23;8.07;;;4.63;;
6388;SDS011;3227;42.654;23.360;2024-01-10T06:35:50;7.33;;;3.87;;
6388;SDS011;3227;42.654;23.360;2024-01-10T06:38:18;8.47;;;4.23;;
6388;SDS011;3227;42.654;23.360;2024-01-10T06:40:47;8.03;;;4.23;;
6388;SDS011;3227;42.654;23.360;2024-01-10T06:43:17;9.53;;;4.43;;
6388;SDS011;3227;42.654;23.360;2024-01-10T06:45:43;6.50;;;3.70;;
6388;SDS011;3227;42.654;23.360;2024-01-10T06:48:10;10.87;;;4.63;;
6388;SDS011;3227;42.654;23.360;2024-01-10T06:50:37;8.47;;;4.53;;
6388;SDS011;3227;42.654;23.360;2024-01-10T06:53:04;8.40;;;4.23;;
6388;SDS011;3227;42.654;23.360;2024-01-10T06:55:31;7.40;;;3.90;;
6388;SDS011;3227;42.654;23.360;2024-01-10T06:57:58;6.37;;;3.80;;
6388;SDS011;3227;42.654;23.360;2024-01-10T07:00:26;6.53;;;4.23;;
6388;SDS011;3227;42.654;23.360;2024-01-10T07:02:52;8.40;;;4.10;;
6388;SDS011;3227;42.654;23.360;2024-01-10T07:05:19;7.70;;;3.70;;
6388;SDS011;3227;42.654;23.360;2024-01-10T07:07:46;6.27;;;3.70;;
6388;SDS011;3227;42.654;23.360;2024-01-10T07:10:14;12.33;;;4.17;;
6388;SDS011;3227;42.654;23.360;2024-01-10T07:12:41;8.60;;;3.93;;
6388;SDS011;3227;42.654;23.360;2024-01-10T07:15:08;7.80;;;4.20;;
6388;SDS011;3227;42.654;23.360;2024-01-10T07:17:37;6.00;;;3.40;;
6388;SDS011;3227;42.654;23.360;2024-01-10T07:20:04;6.07;;;3.53;;
6388;SDS011;3227;42.654;23.360;2024-01-10T07:22:33;7.30;;;3.33;;
6388;SDS011;3227;42.654;23.360;2024-01-10T07:25:00;10.90;;;3.63;;
6388;SDS011;3227;42.654;23.360;2024-01-10T07:27:27;8.20;;;3.97;;
6388;SDS011;3227;42.654;23.360;2024-01-10T07:29:54;9.80;;;3.93;;
6388;SDS011;3227;42.654;23.360;2024-01-10T07:32:21;4.97;;;3.00;;
6388;SDS011;3227;42.654;23.360;2024-01-10T07:34:49;7.73;;;3.87;;
6388;SDS011;3227;42.654;23.360;2024-01-10T07:37:16;6.63;;;3.80;;
6388;SDS011;3227;42.654;23.360;2024-01-10T07:39:45;6.90;;;4.00;;
6388;SDS011;3227;42.654;23.360;2024-01-10T07:42:12;11.93;;;4.57;;
6388;SDS011;3227;42.654;23.360;2024-01-10T07:44:39;10.13;;;4.60;;
6388;SDS011;3227;42.654;23.360;2024-01-10T07:47:06;18.50;;;4.70;;
6388;SDS011;3227;42.654;23.360;2024-01-10T07:49:33;10.30;;;4.93;;
6388;SDS011;3227;42.654;23.360;2024-01-10T07:52:02;9.90;;;4.47;;
6388;SDS011;3227;42.654;23.360;2024-01-10T07:54:30;9.87;;;5.13;;
6388;SDS011;3227;42.654;23.360;2024-01-10T07:56:57;10.60;;;4.90;;
6388;SDS011;3227;42.654;23.360;2024-01-10T07:59:24;8.30;;;4.60;;
6388;SDS011;3227;42.654;23.360;2024-01-10T08:01:54;10.47;;;4.90;;
6388;SDS011;3227;42.654;23.360;2024-01-10T08:04:23;11.13;;;4.97;;
6388;SDS011;3227;42.654;23.360;2024-01-10T08:06:50;12.83;;;4.17;;
6388;SDS011;3227;42.654;23.360;2024-01-10T08:09:19;7.47;;;4.30;;
6388;SDS011;3227;42.654;23.360;2024-01-10T08:11:45;8.90;;;4.20;;
6388;SDS011;3227;42.654;23.360;2024-01-10T08:14:12;8.00;;;4.30;;
6388;SDS011;3227;42.654;23.360;2024-01-10T08:16:40;8.33;;;4.03;;
6388;SDS011;3227;42.654;23.360;2024-01-10T08:19:07;6.20;;;3.63;;
6388;SDS011;3227;42.654;23.360;2024-01-10T08:21:35;8.97;;;3.70;;
6388;SDS011;3227;42.654;23.360;2024-01-10T08:24:02;6.53;;;3.70;;
6388;SDS011;3227;42.654;23.360;2024-01-10T08:26:30;9.60;;;3.73;;
6388;SDS011;3227;42.654;23.360;2024-01-10T08:28:56;7.03;;;3.77;;
6388;SDS011;3227;42.654;23.360;2024-01-10T08:31:23;5.10;;;3.03;;
6388;SDS011;3227;42.654;23.360;2024-01-10T08:36:49;5.43;;;3.20;;
6388;SDS011;3227;42.654;23.360;2024-01-10T08:39:17;6.93;;;3.23;;
6388;SDS011;3227;42.654;23.360;2024-01-10T08:41:45;5.93;;;3.47;;
6388;SDS011;3227;42.654;23.360;2024-01-10T08:44:12;7.37;;;3.20;;
6388;SDS011;3227;42.654;23.360;2024-01-10T08:46:38;5.20;;;3.00;;
6388;SDS011;3227;42.654;23.360;2024-01-10T08:49:05;5.87;;;2.97;;
6388;SDS011;3227;42.654;23.360;2024-01-10T08:51:32;10.83;;;3.23;;
6388;SDS011;3227;42.654;23.360;2024-01-10T08:53:59;5.17;;;2.90;;
6388;SDS011;3227;42.654;23.360;2024-01-10T08:56:26;6.00;;;3.30;;
6388;SDS011;3227;42.654;23.360;2024-01-10T08:58:54;5.57;;;2.97;;
6388;SDS011;3227;42.654;23.360;2024-01-10T09:01:21;6.37;;;3.50;;
6388;SDS011;3227;42.654;23.360;2024-01-10T09:03:48;6.77;;;3.60;;
6388;SDS011;3227;42.654;23.360;2024-01-10T09:06:15;6.33;;;3.30;;
6388;SDS011;3227;42.654;23.360;2024-01-10T09:08:43;7.65;;;4.00;;
6388;SDS011;3227;42.654;23.360;2024-01-10T09:11:09;6.40;;;3.40;;
6388;SDS011;3227;42.654;23.360;2024-01-10T09:13:36;8.50;;;3.70;;
6388;SDS011;3227;42.654;23.360;2024-01-10T09:16:06;5.73;;;3.30;;
6388;SDS011;3227;42.654;23.360;2024-01-10T09:18:34;6.63;;;3.27;;
6388;SDS011;3227;42.654;23.360;2024-01-10T09:21:01;8.65;;;4.07;;
6388;SDS011;3227;42.654;23.360;2024-01-10T09:23:30;9.82;;;3.70;;
6388;SDS011;3227;42.654;23.360;2024-01-10T09:25:56;10.15;;;4.25;;
6388;SDS011;3227;42.654;23.360;2024-01-10T09:28:23;11.17;;;4.57;;
6388;SDS011;3227;42.654;23.360;2024-01-10T09:30:51;10.97;;;4.37;;
6388;SDS011;3227;42.654;23.360;2024-01-10T09:33:20;8.63;;;4.63;;
6388;SDS011;3227;42.654;23.360;2024-01-10T09:35:48;8.75;;;4.57;;
6388;SDS011;3227;42.654;23.360;2024-01-10T09:38:16;8.13;;;4.22;;
6388;SDS011;3227;42.654;23.360;2024-01-10T09:40:43;9.13;;;4.53;;
6388;SDS011;3227;42.654;23.360;2024-01-10T09:43:10;8.23;;;4.30;;
6388;SDS011;3227;42.654;23.360;2024-01-10T09:45:38;7.93;;;4.23;;
6388;SDS011;3227;42.654;23.360;2024-01-10T09:48:13;9.50;;;4.95;;
6388;SDS011;3227;42.654;23.360;2024-01-10T09:50:41;9.40;;;3.67;;
6388;SDS011;3227;42.654;23.360;2024-01-10T09:53:09;12.27;;;4.50;;
6388;SDS011;3227;42.654;23.360;2024-01-10T09:55:43;9.97;;;4.30;;
6388;SDS011;3227;42.654;23.360;2024-01-10T09:58:11;9.45;;;3.88;;
6388;SDS011;3227;42.654;23.360;2024-01-10T10:00:37;7.50;;;4.13;;
6388;SDS011;3227;42.654;23.360;2024-01-10T10:03:07;11.93;;;5.30;;
6388;SDS011;3227;42.654;23.360;2024-01-10T10:05:36;12.55;;;5.50;;
6388;SDS011;3227;42.654;23.360;2024-01-10T10:08:06;11.13;;;5.50;;
6388;SDS011;3227;42.654;23.360;2024-01-10T10:10:34;7.55;;;4.20;;
6388;SDS011;3227;42.654;23.360;2024-01-10T10:13:01;10.65;;;5.57;;
6388;SDS011;3227;42.654;23.360;2024-01-10T10:15:28;12.80;;;6.05;;
6388;SDS011;3227;42.654;23.360;2024-01-10T10:17:55;10.20;;;5.53;;
6388;SDS011;3227;42.654;23.360;2024-01-10T10:20:22;10.07;;;4.50;;
6388;SDS011;3227;42.654;23.360;2024-01-10T10:22:59;9.57;;;5.10;;
6388;SDS011;3227;42.654;23.360;2024-01-10T10:25:30;9.33;;;4.83;;
6388;SDS011;3227;42.654;23.360;2024-01-10T10:27:57;12.05;;;6.75;;
6388;SDS011;3227;42.654;23.360;2024-01-10T10:30:25;13.30;;;6.68;;
6388;SDS011;3227;42.654;23.360;2024-01-10T10:32:52;13.90;;;4.93;;
6388;SDS011;3227;42.654;23.360;2024-01-10T10:35:19;8.57;;;4.97;;
6388;SDS011;3227;42.654;23.360;2024-01-10T10:37:47;11.00;;;6.35;;
6388;SDS011;3227;42.654;23.360;2024-01-10T10:40:14;10.53;;;5.73;;
6388;SDS011;3227;42.654;23.360;2024-01-10T10:42:44;11.73;;;5.23;;
6388;SDS011;3227;42.654;23.360;2024-01-10T10:45:14;9.77;;;5.20;;
6388;SDS011;3227;42.654;23.360;2024-01-10T10:47:43;8.67;;;5.00;;
6388;SDS011;3227;42.654;23.360;2024-01-10T10:50:12;10.33;;;4.97;;
6388;SDS011;3227;42.654;23.360;2024-01-10T10:52:41;10.03;;;4.93;;
6388;SDS011;3227;42.654;23.360;2024-01-10T10:55:13;11.43;;;5.20;;
6388;SDS011;3227;42.654;23.360;2024-01-10T10:57:41;10.10;;;5.03;;
6388;SDS011;3227;42.654;23.360;2024-01-10T11:00:11;12.00;;;5.63;;
6388;SDS011;3227;42.654;23.360;2024-01-10T11:02:45;12.40;;;5.70;;
6388;SDS011;3227;42.654;23.360;2024-01-10T11:05:12;13.90;;;5.97;;
6388;SDS011;3227;42.654;23.360;2024-01-10T11:07:40;11.80;;;5.90;;
6388;SDS011;3227;42.654;23.360;2024-01-10T11:10:09;11.50;;;6.27;;
6388;SDS011;3227;42.654;23.360;2024-01-10T11:12:52;11.43;;;5.77;;
6388;SDS011;3227;42.654;23.360;2024-01-10T11:15:38;14.63;;;7.50;;
6388;SDS011;3227;42.654;23.360;2024-01-10T11:18:36;11.80;;;6.07;;
6388;SDS011;3227;42.654;23.360;2024-01-10T11:21:21;14.77;;;7.40;;
6388;SDS011;3227;42.654;23.360;2024-01-10T11:24:00;11.27;;;5.80;;
6388;SDS011;3227;42.654;23.360;2024-01-10T11:26:29;12.33;;;6.77;;
6388;SDS011;3227;42.654;23.360;2024-01-10T11:28:56;14.00;;;6.20;;
6388;SDS011;3227;42.654;23.360;2024-01-10T11:31:30;15.53;;;6.53;;
6388;SDS011;3227;42.654;23.360;2024-01-10T11:33:58;12.47;;;6.47;;
6388;SDS011;3227;42.654;23.360;2024-01-10T11:36:26;10.83;;;6.00;;
6388;SDS011;3227;42.654;23.360;2024-01-10T11:38:54;15.87;;;6.83;;
6388;SDS011;3227;42.654;23.360;2024-01-10T11:41:23;14.23;;;6.50;;
6388;SDS011;3227;42.654;23.360;2024-01-10T11:47:12;11.27;;;5.77;;
6388;SDS011;3227;42.654;23.360;2024-01-10T11:49:40;15.57;;;7.13;;
6388;SDS011;3227;42.654;23.360;2024-01-10T11:52:08;13.67;;;6.47;;
6388;SDS011;3227;42.654;23.360;2024-01-10T11:54:36;19.23;;;8.80;;
6388;SDS011;3227;42.654;23.360;2024-01-10T11:57:02;15.88;;;8.73;;
6388;SDS011;3227;42.654;23.360;2024-01-10T11:59:33;14.83;;;7.27;;
6388;SDS011;3227;42.654;23.360;2024-01-10T12:02:01;13.50;;;7.10;;
6388;SDS011;3227;42.654;23.360;2024-01-10T12:04:30;14.98;;;7.63;;
6388;SDS011;3227;42.654;23.360;2024-01-10T12:06:58;19.85;;;9.15;;
6388;SDS011;3227;42.654;23.360;2024-01-10T12:09:25;18.40;;;8.07;;
6388;SDS011;3227;42.654;23.360;2024-01-10T12:11:51;14.03;;;7.27;;
6388;SDS011;3227;42.654;23.360;2024-01-10T12:14:18;21.97;;;10.00;;
6388;SDS011;3227;42.654;23.360;2024-01-10T12:16:46;18.83;;;9.65;;
6388;SDS011;3227;42.654;23.360;2024-01-10T12:19:13;19.15;;;8.93;;
6388;SDS011;3227;42.654;23.360;2024-01-10T12:21:41;18.67;;;9.70;;
6388;SDS011;3227;42.654;23.360;2024-01-10T12:24:13;17.52;;;9.65;;
6388;SDS011;3227;42.654;23.360;2024-01-10T12:26:43;16.30;;;8.93;;
6388;SDS011;3227;42.654;23.360;2024-01-10T12:29:10;17.87;;;8.17;;
6388;SDS011;3227;42.654;23.360;2024-01-10T12:31:37;16.37;;;8.27;;
6388;SDS011;3227;42.654;23.360;2024-01-10T12:34:06;25.10;;;7.73;;
6388;SDS011;3227;42.654;23.360;2024-01-10T12:36:35;18.80;;;7.87;;
6388;SDS011;3227;42.654;23.360;2024-01-10T12:39:03;14.17;;;7.57;;
6388;SDS011;3227;42.654;23.360;2024-01-10T12:41:32;17.50;;;8.60;;
6388;SDS011;3227;42.654;23.360;2024-01-10T12:44:00;18.27;;;8.10;;
6388;SDS011;3227;42.654;23.360;2024-01-10T12:46:29;21.80;;;8.03;;
6388;SDS011;3227;42.654;23.360;2024-01-10T12:48:59;14.67;;;7.87;;
6388;SDS011;3227;42.654;23.360;2024-01-10T12:51:27;13.47;;;8.07;;
6388;SDS011;3227;42.654;23.360;2024-01-10T12:53:55;13.73;;;7.77;;
6388;SDS011;3227;42.654;23.360;2024-01-10T12:56:25;14.43;;;7.90;;
6388;SDS011;3227;42.654;23.360;2024-01-10T12:58:52;15.40;;;8.37;;
6388;SDS011;3227;42.654;23.360;2024-01-10T13:01:19;16.97;;;8.53;;
6388;SDS011;3227;42.654;23.360;2024-01-10T13:03:46;15.70;;;8.70;;
6388;SDS011;3227;42.654;23.360;2024-01-10T13:06:14;14.03;;;8.33;;
6388;SDS011;3227;42.654;23.360;2024-01-10T13:08:41;17.43;;;8.20;;
6388;SDS011;3227;42.654;23.360;2024-01-10T13:11:08;20.20;;;8.13;;
6388;SDS011;3227;42.654;23.360;2024-01-10T13:13:36;13.73;;;7.67;;
6388;SDS011;3227;42.654;23.360;2024-01-10T13:16:03;23.23;;;7.87;;
6388;SDS011;3227;42.654;23.360;2024-01-10T13:18:31;15.53;;;8.60;;
6388;SDS011;3227;42.654;23.360;2024-01-10T13:20:58;20.43;;;7.63;;
6388;SDS011;3227;42.654;23.360;2024-01-10T13:23:26;14.30;;;7.77;;
6388;SDS011;3227;42.654;23.360;2024-01-10T13:25:53;14.80;;;7.73;;
6388;SDS011;3227;42.654;23.360;2024-01-10T13:28:20;16.50;;;7.87;;
6388;SDS011;3227;42.654;23.360;2024-01-10T13:30:48;16.67;;;7.90;;
6388;SDS011;3227;42.654;23.360;2024-01-10T13:33:16;13.80;;;7.80;;
6388;SDS011;3227;42.654;23.360;2024-01-10T13:35:43;22.27;;;7.93;;
6388;SDS011;3227;42.654;23.360;2024-01-10T13:38:10;13.87;;;8.07;;
6388;SDS011;3227;42.654;23.360;2024-01-10T13:40:37;14.43;;;7.13;;
6388;SDS011;3227;42.654;23.360;2024-01-10T13:43:04;13.23;;;8.20;;
6388;SDS011;3227;42.654;23.360;2024-01-10T13:45:30;27.83;;;11.00;;
6388;SDS011;3227;42.654;23.360;2024-01-10T13:47:59;16.37;;;8.43;;
6388;SDS011;3227;42.654;23.360;2024-01-10T13:50:26;16.00;;;8.70;;
6388;SDS011;3227;42.654;23.360;2024-01-10T13:52:59;15.93;;;8.23;;
6388;SDS011;3227;42.654;23.360;2024-01-10T13:55:28;19.47;;;8.60;;
6388;SDS011;3227;42.654;23.360;2024-01-10T13:57:54;16.87;;;8.67;;
6388;SDS011;3227;42.654;23.360;2024-01-10T14:00:22;17.57;;;8.87;;
6388;SDS011;3227;42.654;23.360;2024-01-10T14:02:49;18.47;;;8.53;;
6388;SDS011;3227;42.654;23.360;2024-01-10T14:05:17;17.50;;;8.87;;
6388;SDS011;3227;42.654;23.360;2024-01-10T14:07:44;14.87;;;8.47;;
6388;SDS011;3227;42.654;23.360;2024-01-10T14:10:11;17.57;;;8.77;;
6388;SDS011;3227;42.654;23.360;2024-01-10T14:12:38;17.90;;;8.80;;
6388;SDS011;3227;42.654;23.360;2024-01-10T14:15:05;15.80;;;8.90;;
6388;SDS011;3227;42.654;23.360;2024-01-10T14:17:34;13.57;;;8.37;;
6388;SDS011;3227;42.654;23.360;2024-01-10T14:20:00;20.73;;;8.43;;
6388;SDS011;3227;42.654;23.360;2024-01-10T14:22:29;18.53;;;9.43;;
6388;SDS011;3227;42.654;23.360;2024-01-10T14:24:56;14.80;;;8.43;;
6388;SDS011;3227;42.654;23.360;2024-01-10T14:27:23;16.60;;;8.73;;
6388;SDS011;3227;42.654;23.360;2024-01-10T14:29:50;14.33;;;7.80;;
6388;SDS011;3227;42.654;23.360;2024-01-10T14:32:17;17.50;;;8.73;;
6388;SDS011;3227;42.654;23.360;2024-01-10T14:34:44;19.70;;;9.33;;
6388;SDS011;3227;42.654;23.360;2024-01-10T14:37:11;21.63;;;8.83;;
6388;SDS011;3227;42.654;23.360;2024-01-10T14:39:39;15.17;;;8.40;;
6388;SDS011;3227;42.654;23.360;2024-01-10T14:42:06;16.77;;;8.30;;
6388;SDS011;3227;42.654;23.360;2024-01-10T14:44:34;14.90;;;7.40;;
6388;SDS011;3227;42.654;23.360;2024-01-10T14:47:00;16.67;;;7.90;;
6388;SDS011;3227;42.654;23.360;2024-01-10T14:49:28;14.93;;;7.70;;
6388;SDS011;3227;42.654;23.360;2024-01-10T14:51:55;15.10;;;8.33;;
6388;SDS011;3227;42.654;23.360;2024-01-10T14:54:22;16.77;;;8.80;;
6388;SDS011;3227;42.654;23.360;2024-01-10T14:56:50;14.77;;;7.87;;
6388;SDS011;3227;42.654;23.360;2024-01-10T14:59:18;13.90;;;8.27;;
6388;SDS011;3227;42.654;23.360;2024-01-10T15:01:45;12.57;;;7.70;;
6388;SDS011;3227;42.654;23.360;2024-01-10T15:04:12;14.80;;;7.80;;